createdAt,value
2022-08-19T00:00:56.240Z,99842.43
2022-08-19T00:05:58.953Z,99849.60
2022-08-19T00:11:01.695Z,99847.41
2022-08-19T00:16:06.909Z,99839.97
2022-08-19T00:21:10.566Z,99833.64
2022-08-19T00:26:13.448Z,99832.96
2022-08-19T00:31:16.603Z,99831.00
2022-08-19T00:36:19.627Z,99841.52
2022-08-19T00:41:25.094Z,99850.79
2022-08-19T00:46:29.445Z,99850.28
2022-08-19T00:51:33.904Z,99845.36
2022-08-19T00:56:37.857Z,99844.20
2022-08-19T01:01:43.522Z,99854.60
2022-08-19T01:06:46.292Z,99852.29
2022-08-19T01:11:49.601Z,99856.06
2022-08-19T01:16:55.562Z,99854.39
2022-08-19T01:22:14.203Z,99854.88
2022-08-19T01:27:18.737Z,99862.80
2022-08-19T01:32:33.984Z,99862.57
2022-08-19T01:37:48.102Z,99863.16
2022-08-19T01:42:53.861Z,99863.86
2022-08-19T01:48:01.482Z,99858.99
2022-08-19T01:53:09.432Z,99855.17
2022-08-19T01:58:25.826Z,99856.33
2022-08-19T02:03:30.076Z,99861.45
2022-08-19T02:08:35.792Z,99860.05
2022-08-19T02:13:38.521Z,99854.80
2022-08-19T02:18:41.234Z,99849.12
2022-08-19T02:23:44.289Z,99849.04
2022-08-19T02:28:47.014Z,99845.07
2022-08-19T02:33:50.035Z,99846.66
2022-08-19T02:38:54.718Z,99848.84
2022-08-19T02:44:14.274Z,99849.01
2022-08-19T02:49:22.172Z,99845.05
2022-08-19T02:54:24.977Z,99854.11
2022-08-19T02:59:31.475Z,99856.89
2022-08-19T03:04:34.269Z,99854.01
2022-08-19T03:09:40.674Z,99852.45
2022-08-19T03:14:43.801Z,99849.88
2022-08-19T03:19:46.503Z,99844.61
2022-08-19T03:24:49.262Z,99848.66
2022-08-19T03:29:52.576Z,99854.30
2022-08-19T03:34:55.379Z,99859.94
2022-08-19T03:39:58.098Z,99860.59
2022-08-19T03:45:00.984Z,99858.66
2022-08-19T03:50:04.056Z,99853.05
2022-08-19T03:55:07.787Z,99851.15
2022-08-19T04:00:13.536Z,99848.92
2022-08-19T04:05:16.825Z,99851.54
2022-08-19T04:10:19.660Z,99855.95
2022-08-19T04:15:22.357Z,99860.27
2022-08-19T04:20:25.077Z,99869.66
2022-08-19T04:25:27.802Z,99878.20
2022-08-19T04:30:30.488Z,99881.18
2022-08-19T04:35:46.210Z,99881.11
2022-08-19T04:41:09.112Z,99883.96
2022-08-19T04:46:18.151Z,99880.57
2022-08-19T04:51:37.913Z,99881.96
2022-08-19T04:56:41.809Z,99873.45
2022-08-19T05:01:44.656Z,99872.88
2022-08-19T05:06:49.586Z,99867.16
2022-08-19T05:11:54.670Z,99863.39
2022-08-19T05:17:25.622Z,99862.27
2022-08-19T05:22:38.411Z,99856.08
2022-08-19T05:27:42.713Z,99851.73
2022-08-19T05:32:45.840Z,99856.59
2022-08-19T05:37:48.553Z,99858.53
2022-08-19T05:42:57.700Z,99859.40
2022-08-19T05:48:00.573Z,99860.77
2022-08-19T05:53:03.781Z,99862.71
2022-08-19T05:58:08.732Z,99858.37
2022-08-19T06:03:13.439Z,99867.50
2022-08-19T06:08:19.492Z,99882.99
2022-08-19T06:13:24.331Z,99898.02
2022-08-19T06:18:27.420Z,99897.70
2022-08-19T06:23:30.527Z,99897.32
2022-08-19T06:28:34.684Z,99897.98
2022-08-19T06:33:38.460Z,99900.58
2022-08-19T06:38:41.681Z,99896.30
2022-08-19T06:43:45.034Z,99902.80
2022-08-19T06:48:49.749Z,99902.05
2022-08-19T06:53:55.680Z,99899.72
2022-08-19T06:58:59.448Z,99900.33
2022-08-19T07:04:03.492Z,99890.11
2022-08-19T07:09:10.492Z,99878.70
2022-08-19T07:14:19.126Z,99878.02
2022-08-19T07:19:24.790Z,99881.65
2022-08-19T07:24:28.515Z,99883.96
2022-08-19T07:29:38.345Z,99879.91
2022-08-19T07:34:41.386Z,99875.84
2022-08-19T07:39:45.884Z,99887.02
2022-08-19T07:44:50.421Z,99884.65
2022-08-19T07:49:53.617Z,99886.15
2022-08-19T07:54:56.422Z,99880.16
2022-08-19T08:00:00.273Z,99877.58
2022-08-19T08:05:22.435Z,99873.21
2022-08-19T08:10:25.295Z,99876.60
2022-08-19T08:15:28.334Z,99886.26
2022-08-19T08:20:32.558Z,99885.62
2022-08-19T08:25:37.385Z,99887.16
2022-08-19T08:30:45.075Z,99887.12
2022-08-19T08:35:48.421Z,99877.73
2022-08-19T08:41:20.615Z,99866.99
2022-08-19T08:46:31.488Z,99876.80
2022-08-19T08:56:54.302Z,99875.98
2022-08-19T09:01:57.131Z,99869.52
2022-08-19T09:07:36.051Z,99861.60
2022-08-19T09:12:59.936Z,99858.13
2022-08-19T09:18:07.191Z,99851.66
2022-08-19T09:23:11.897Z,99850.84
2022-08-19T09:28:22.492Z,99852.22
2022-08-19T09:33:30.614Z,99851.48
2022-08-19T09:38:33.645Z,99852.26
2022-08-19T09:43:44.176Z,99853.10
2022-08-19T09:48:53.149Z,99856.48
2022-08-19T09:54:01.281Z,99851.17
2022-08-19T09:59:07.868Z,99838.85
2022-08-19T10:04:20.174Z,99832.16
2022-08-19T10:09:26.254Z,99836.99
2022-08-19T10:14:38.121Z,99840.71
2022-08-19T10:19:42.076Z,99842.89
2022-08-19T10:24:58.650Z,99831.02
2022-08-19T10:30:02.697Z,99832.98
2022-08-19T10:35:09.492Z,99826.48
2022-08-19T10:40:12.956Z,99828.36
2022-08-19T10:45:15.645Z,99823.89
2022-08-19T10:50:37.431Z,99816.49
2022-08-19T10:55:59.274Z,99804.02
2022-08-19T11:01:02.340Z,99788.67
2022-08-19T11:06:08.653Z,99776.40
2022-08-19T11:11:11.769Z,99779.87
2022-08-19T11:16:23.996Z,99767.61
2022-08-19T11:21:33.340Z,99757.05
2022-08-19T11:26:37.094Z,99753.64
2022-08-19T11:31:42.861Z,99759.27
2022-08-19T11:36:49.182Z,99762.34
2022-08-19T11:41:52.483Z,99765.33
2022-08-19T11:46:55.823Z,99755.09
2022-08-19T11:51:59.494Z,99749.86
2022-08-19T11:57:04.761Z,99747.02
2022-08-19T12:02:07.487Z,99731.43
2022-08-19T12:07:10.258Z,99721.58
2022-08-19T12:12:13.210Z,99715.48
2022-08-19T12:17:16.362Z,99713.67
2022-08-19T12:22:19.588Z,99708.55
2022-08-19T12:27:39.933Z,99708.46
2022-08-19T12:32:44.245Z,99702.21
2022-08-19T12:37:56.917Z,99711.98
2022-08-19T12:43:00.508Z,99705.73
2022-08-19T12:48:33.584Z,99692.96
2022-08-19T12:53:27.087Z,99686.59
2022-08-19T12:58:30.834Z,99680.30
2022-08-19T13:03:36.432Z,99684.83
2022-08-19T13:08:42.907Z,99681.55
2022-08-19T13:13:51.507Z,99676.95
2022-08-19T13:18:56.939Z,99677.92
2022-08-19T13:23:59.980Z,99674.95
2022-08-19T13:29:38.062Z,99675.47
2022-08-19T13:34:47.749Z,99661.42
2022-08-19T13:39:50.615Z,99649.73
2022-08-19T13:44:55.765Z,99649.67
2022-08-19T13:49:58.468Z,99644.70
2022-08-19T13:55:01.222Z,99649.98
2022-08-19T14:00:05.496Z,99651.14
2022-08-19T14:05:12.601Z,99665.52
2022-08-19T14:10:16.127Z,99666.80
2022-08-19T14:15:18.895Z,99656.09
2022-08-19T14:20:22.470Z,99656.05
2022-08-19T14:25:31.046Z,99646.59
2022-08-19T14:30:35.906Z,99649.23
2022-08-19T14:35:39.096Z,99641.33
2022-08-19T14:40:43.146Z,99640.30
2022-08-19T14:45:46.305Z,99641.88
2022-08-19T14:50:49.623Z,99644.51
2022-08-19T14:55:53.108Z,99642.89
2022-08-19T15:00:55.994Z,99641.23
2022-08-19T15:06:00.180Z,99645.24
2022-08-19T15:11:03.875Z,99642.02
2022-08-19T15:16:06.934Z,99641.53
2022-08-19T15:21:27.151Z,99650.52
2022-08-19T15:26:33.479Z,99641.67
2022-08-19T15:31:38.264Z,99643.34
2022-08-19T15:36:41.789Z,99645.00
2022-08-19T15:41:45.286Z,99642.45
2022-08-19T15:46:49.450Z,99644.55
2022-08-19T15:51:54.382Z,99645.77
2022-08-19T15:57:15.720Z,99642.38
2022-08-19T16:02:40.386Z,99646.30
2022-08-19T16:07:43.260Z,99644.37
2022-08-19T16:12:46.105Z,99641.17
2022-08-19T16:17:55.493Z,99643.48
2022-08-19T16:23:00.546Z,99646.70
2022-08-19T16:28:06.630Z,99637.98
2022-08-19T16:33:11.082Z,99634.33
2022-08-19T16:38:13.783Z,99626.61
2022-08-19T16:43:16.473Z,99632.73
2022-08-19T16:48:20.594Z,99634.40
2022-08-19T16:53:29.166Z,99635.86
2022-08-19T16:58:34.449Z,99634.35
2022-08-19T17:03:39.993Z,99643.37
2022-08-19T17:08:48.504Z,99653.92
2022-08-19T17:13:52.276Z,99659.63
2022-08-19T17:18:57.541Z,99666.38
2022-08-19T17:24:02.284Z,99667.73
2022-08-19T17:29:06.054Z,99670.40
2022-08-19T17:34:09.379Z,99676.20
2022-08-19T17:39:12.173Z,99678.44
2022-08-19T17:44:14.914Z,99685.27
2022-08-19T17:49:17.991Z,99682.35
2022-08-19T17:54:20.800Z,99681.16
2022-08-19T17:59:23.610Z,99686.77
2022-08-19T18:04:31.357Z,99690.04
2022-08-19T18:09:42.283Z,99697.11
2022-08-19T18:14:46.565Z,99699.92
2022-08-19T18:19:49.492Z,99708.20
2022-08-19T18:24:52.448Z,99714.10
2022-08-19T18:29:59.860Z,99717.14
2022-08-19T18:35:06.596Z,99716.64
2022-08-19T18:40:31.698Z,99719.75
2022-08-19T18:46:07.223Z,99717.87
2022-08-19T18:51:11.383Z,99714.91
2022-08-19T18:56:18.104Z,99708.09
2022-08-19T19:01:50.693Z,99705.33
2022-08-19T19:06:53.889Z,99704.35
2022-08-19T19:12:00.530Z,99706.88
2022-08-19T19:17:06.973Z,99712.50
2022-08-19T19:22:13.233Z,99717.00
2022-08-19T19:27:20.457Z,99710.30
2022-08-19T19:32:28.529Z,99709.98
2022-08-19T19:37:31.683Z,99709.78
2022-08-19T19:42:35.201Z,99706.02
2022-08-19T19:47:38.120Z,99711.37
2022-08-19T19:52:41.190Z,99701.64
2022-08-19T19:57:46.585Z,99705.80
2022-08-19T20:02:50.917Z,99704.52
2022-08-19T20:08:14.263Z,99704.88
2022-08-19T20:13:17.165Z,99704.84
2022-08-19T20:18:19.925Z,99709.04
2022-08-19T20:23:23.637Z,99713.77
2022-08-19T20:28:28.458Z,99712.41
2022-08-19T20:33:31.500Z,99710.39
2022-08-19T20:38:35.171Z,99712.48
2022-08-19T20:43:38.890Z,99713.70
2022-08-19T20:48:42.971Z,99717.98
2022-08-19T20:53:45.793Z,99724.04
2022-08-19T20:58:53.518Z,99727.20
2022-08-19T21:03:58.336Z,99725.67
2022-08-19T21:09:01.318Z,99735.56
2022-08-19T21:14:04.096Z,99739.20
2022-08-19T21:19:06.995Z,99737.96
2022-08-19T21:24:09.935Z,99738.68
2022-08-19T21:29:12.664Z,99731.70
2022-08-19T21:34:15.621Z,99741.45
2022-08-19T21:39:18.460Z,99733.56
2022-08-19T21:44:21.298Z,99734.39
2022-08-19T21:49:24.101Z,99729.09
2022-08-19T21:54:26.822Z,99724.34
2022-08-19T21:59:43.537Z,99723.63
2022-08-19T22:04:47.167Z,99740.24
2022-08-19T22:09:51.726Z,99729.97
2022-08-19T22:14:55.692Z,99726.04
2022-08-19T22:19:58.634Z,99734.59
2022-08-19T22:25:31.611Z,99754.20
2022-08-19T22:30:38.235Z,99752.18
2022-08-19T22:35:42.527Z,99746.55
2022-08-19T22:40:48.538Z,99732.80
2022-08-19T22:45:53.716Z,99726.16
2022-08-19T22:51:15.882Z,99712.08
2022-08-19T22:56:20.250Z,99708.48
2022-08-19T23:01:29.661Z,99725.57
2022-08-19T23:06:36.374Z,99738.91
2022-08-19T23:11:42.018Z,99753.19
2022-08-19T23:16:50.761Z,99737.59
2022-08-19T23:21:54.144Z,99760.50
2022-08-19T23:27:15.205Z,99778.40
2022-08-19T23:32:19.559Z,99802.85
2022-08-19T23:37:22.274Z,99797.54
2022-08-19T23:42:27.452Z,99800.45
2022-08-19T23:47:30.205Z,99803.21
2022-08-19T23:52:35.594Z,99810.55
2022-08-19T23:57:38.485Z,99827.46
